Terminal Aerodrome Forecast
Issued by NWS North Platte, NE

Home | Current Version | Previous Version | Text Only | Print | Product List | Glossary On
Versions: 1 2 3 4 5 6 7 8 9 10 11 12 13 14 15 16 17
000
FTUS43 KLBF 260500
TAFVTN
TAF
KVTN 260520Z 2606/2706 36009KT P6SM BKN025 OVC110
      TEMPO 2606/2607 4SM -SHSN OVC025
     FM260700 34008KT P6SM SCT100
     FM261600 35013KT P6SM SKC
     FM270000 03006KT P6SM SKC=

USA.gov is the U.S. government's official web portal to all federal, state and local government web resources and services.